Littleton, CO (80122)

5:00 PM MDT on August 04, 2015 (GMT -0600)
Forest Park | | Change Station
CLOSE
Current Station
Personal Weather Station
Location: Centennial, CO
Elevation: 5610 ft
Nearby Weather Stations

Elev 5610 ft 39.58 °N, 104.96 °W | Updated 2 seconds ago

Partly Cloudy
Partly Cloudy
87.6 °F
Feels Like 84 °F
N
4.0
Wind Variable Wind from North
Gusts 6.0 mph

Today
High -- | Low -- °F
--% Chance of Precip.
Yesterday
High -- | Low -- °F
Precip. -- in
6:01 AM 8:09 PM
Waning Gibbous, 73% visible
Pressure 29.85 in
Visibility 10.0 miles
Clouds Few 11000 ft
Scattered Clouds 25000 ft
Heat Index 84 °F
Dew Point 34 °F
Humidity 15%
Rainfall 0.00 in
Snow Depth Not available.
UV 4 out of 12
Pollen 7.60 out of 12
Air Quality Not available.
Flu Activity Not available.
METAR KAPA 042253Z 33016G26KT 10SM FEW110 SCT250 31/01 A3008 RMK AO2 PK WND 34026/2248 SLP108 T03110006

More Conditions Fewer Conditions

Pressure 29.85 in
Visibility 10.0 miles
Clouds Few 11000 ft
Scattered Clouds 25000 ft
Heat Index 84 °F
Dew Point 34 °F
Humidity 15%
Rainfall 0.00 in
Snow Depth Not available.
UV 4 out of 12
Pollen 7.60 out of 12
Air Quality Not available.
Flu Activity Not available.
METAR KAPA 042253Z 33016G26KT 10SM FEW110 SCT250 31/01 A3008 RMK AO2 PK WND 34026/2248 SLP108 T03110006

More Conditions Fewer Conditions

10-Day Weather Forecast

×

Almanac

Astronomy

Aug. 04, 2015 Rise Set
Actual Time
Civil Twilight
Nautical Twilight
Astronomical Twilight
Moon
Length of Visible Light
Length of Day
Tomorrow will be .
, % of the Moon is Illuminated

Today's Extremes

State Highs State Lows

Community

WunderPhotos

Upload Photos

1,844,017 photos uploaded!

WunderBlogs® & News

Nearby

Air Quality

  Air Quality AQ Index Pollutant
Not available.

Snow Depth

Station Depth Elevation

Earthquake Activity

City Distance Mag. Time & Date
Minimum magnitude displayed is 2.5.

Coastal Water Temperatures

Place Temperature

Stations

Nearby Weather Stations

Station Location Temp. Windchill Dew Point Humidity Wind Precip. Elev Updated Type